Route Details

Aircraft Information
Group: North America Fleet
Types: B738, B752, B762, B763
Route Data
Distance: 828nm
Duration: 2h 35m
Origin METAR: KLAL 152350Z 21005KT 10SM SKC 28/22 A2989
Dest. METAR: KABE 152351Z 16006KT 10SM SCT070 26/11 A2997 RMK AO2 SLP145 T02560106 10300 20256 53012
Freight Data
(for Aug 16, 2022)
Load Factor:
27%
Manifested Cargo: 27,330lbs
Financial History
Total Freight: 64,099lbs
Average Load: 0lbs/flt
Fuel Used: 24,595lbs
Avg. Fuel Used: 0lbs/flt
Fuel Expense: $13,773
Avg. Fuel Expense: $0
Avg. Fuel Cost: $0/lbs
Total Gross Income: $163,452
Pilot Pay: $169
Total Expenses: $31,489
Total Revenue: $117,423
Average Revenue: $0

Capitol Logistics 403




KLAL
Lakeland Linder Regional Airport
Lakeland, Florida
KABE
Lehigh Valley International Airport
Allentown, Pennsylvania

Activity Log

Date Flight Route Aircraft Duration
07/19/2022 CPX403 DCT NITTS DCT WILON DCT CAMJO DCT SPA DCT BKW DCT COURG DCT SCAPE DCT HAR V162 DUMMR DCT B763 2h 27m